Time;durP1;ratioP1;P1;durP2;ratioP2;P2;SDS_P1;SDS_P2;PMS_P1;PMS_P2;Temp;Humidity;BMP_temperature;BMP_pressure;BME280_temperature;BME280_humidity;BME280_pressure;Samples;Min_cycle;Max_cycle;Signal;HPM_P1;HPM_P2
2022/07/03 00:00:30;;;;;;;3.13;2.40;;;28.30;44.30;;;;;;5072043;28;20470;-83
2022/07/03 00:02:58;;;;;;;3.57;2.20;;;28.40;44.10;;;;;;5065257;28;20463;-82
2022/07/03 00:05:26;;;;;;;2.30;2.13;;;28.40;44.00;;;;;;5071996;28;20538;-82
2022/07/03 00:07:55;;;;;;;3.03;2.17;;;28.50;44.20;;;;;;5071361;28;20421;-82
2022/07/03 00:10:23;;;;;;;3.00;2.40;;;28.50;44.00;;;;;;5071926;28;20443;-81
2022/07/03 00:12:51;;;;;;;2.53;2.30;;;28.40;43.90;;;;;;5072328;28;20463;-82
2022/07/03 00:15:19;;;;;;;4.47;2.33;;;28.50;44.40;;;;;;5072794;28;20458;-82
2022/07/03 00:17:47;;;;;;;3.50;2.17;;;28.50;43.40;;;;;;5069636;28;20450;-82
2022/07/03 00:20:15;;;;;;;2.37;2.20;;;28.50;43.70;;;;;;5066367;28;20467;-82
2022/07/03 00:22:44;;;;;;;2.10;2.00;;;28.40;43.40;;;;;;5070776;28;20485;-81
2022/07/03 00:25:13;;;;;;;5.77;2.10;;;28.20;44.00;;;;;;5071930;28;20423;-82
2022/07/03 00:27:41;;;;;;;1.90;1.70;;;28.20;44.20;;;;;;5072413;28;20431;-82
2022/07/03 00:30:10;;;;;;;2.50;2.30;;;28.20;44.00;;;;;;5072693;28;20442;-82
2022/07/03 00:32:39;;;;;;;3.17;2.97;;;28.00;44.00;;;;;;5071900;28;20509;-82
2022/07/03 00:35:07;;;;;;;4.53;2.97;;;28.10;44.50;;;;;;5067488;28;20411;-81
2022/07/03 00:37:35;;;;;;;4.27;3.73;;;28.10;44.40;;;;;;5052295;28;20433;-83
2022/07/03 00:40:03;;;;;;;3.40;2.77;;;28.10;44.10;;;;;;5052605;28;20474;-82
2022/07/03 00:42:33;;;;;;;2.97;2.77;;;27.90;44.30;;;;;;5052140;28;20444;-82
2022/07/03 00:45:01;;;;;;;3.90;2.60;;;27.60;44.80;;;;;;5052598;28;20447;-82
2022/07/03 00:47:28;;;;;;;4.77;2.47;;;27.60;45.30;;;;;;5055730;28;20439;-82
2022/07/03 00:49:57;;;;;;;3.00;2.80;;;27.60;45.30;;;;;;5054231;28;20588;-82
2022/07/03 00:52:25;;;;;;;4.77;2.60;;;27.60;45.40;;;;;;5058760;28;20467;-81
2022/07/03 00:54:54;;;;;;;6.53;3.07;;;27.70;45.10;;;;;;5054324;28;20454;-81
2022/07/03 00:57:23;;;;;;;5.90;3.83;;;27.80;45.10;;;;;;5055192;28;20431;-81
2022/07/03 00:59:52;;;;;;;3.27;2.80;;;27.80;44.90;;;;;;5054430;28;20439;-81
2022/07/03 01:02:28;;;;;;;2.77;2.40;;;27.70;45.00;;;;;;5054569;28;20474;-81
2022/07/03 01:05:00;;;;;;;3.37;2.37;;;27.30;45.00;;;;;;5053813;28;20413;-81
2022/07/03 01:07:34;;;;;;;3.53;2.90;;;27.30;46.00;;;;;;5068436;28;20463;-81
2022/07/03 01:10:05;;;;;;;2.50;2.30;;;27.30;45.80;;;;;;5061581;28;20465;-81
2022/07/03 01:12:39;;;;;;;2.57;2.40;;;27.40;45.70;;;;;;5054147;28;20483;-80
2022/07/03 01:15:11;;;;;;;2.90;2.70;;;27.50;45.50;;;;;;5054499;28;20446;-81
2022/07/03 01:17:40;;;;;;;2.63;2.43;;;27.60;45.70;;;;;;5054162;28;20443;-81
2022/07/03 01:20:08;;;;;;;2.23;2.13;;;27.60;45.50;;;;;;5054322;28;20478;-81
2022/07/03 01:22:36;;;;;;;3.17;2.17;;;27.70;45.20;;;;;;5054137;28;20468;-80
2022/07/03 01:25:24;;;;;;;2.10;1.90;;;27.80;45.10;;;;;;5071319;28;20455;-81
2022/07/03 01:28:10;;;;;;;3.00;2.10;;;27.70;45.00;;;;;;5054923;28;20428;-81
2022/07/03 01:30:39;;;;;;;2.20;2.10;;;27.50;45.30;;;;;;5053975;28;20439;-80
2022/07/03 01:33:08;;;;;;;2.60;2.40;;;27.30;45.80;;;;;;5053563;28;20498;-81
2022/07/03 01:35:37;;;;;;;2.73;2.53;;;27.20;46.10;;;;;;5054267;28;20428;-82
2022/07/03 01:38:07;;;;;;;4.83;2.60;;;27.20;46.10;;;;;;5053831;28;20514;-81
2022/07/03 01:40:37;;;;;;;4.40;3.30;;;27.20;46.30;;;;;;5061149;28;20475;-82
2022/07/03 01:43:07;;;;;;;3.93;3.53;;;27.20;46.40;;;;;;5065501;28;20462;-82
2022/07/03 01:45:39;;;;;;;4.13;3.67;;;27.10;46.30;;;;;;5073945;28;20443;-83
2022/07/03 01:48:08;;;;;;;6.27;4.73;;;27.00;46.40;;;;;;5074031;28;20405;-83
2022/07/03 01:50:36;;;;;;;6.40;4.47;;;26.90;46.60;;;;;;5073630;28;20449;-83
2022/07/03 01:53:06;;;;;;;4.93;4.13;;;27.00;47.00;;;;;;5072995;28;20466;-84
2022/07/03 01:55:35;;;;;;;4.23;3.83;;;27.10;46.40;;;;;;5072193;28;20450;-83
2022/07/03 01:58:03;;;;;;;6.13;5.23;;;27.10;46.10;;;;;;5072872;28;20455;-83
2022/07/03 02:00:33;;;;;;;4.47;3.17;;;27.00;46.80;;;;;;5072420;28;20466;-83
2022/07/03 02:03:02;;;;;;;3.60;3.30;;;27.10;46.50;;;;;;5052691;28;20471;-82
2022/07/03 02:05:35;;;;;;;2.97;2.67;;;27.00;46.60;;;;;;5053050;28;20402;-83
2022/07/03 02:08:09;;;;;;;4.70;3.33;;;27.00;46.60;;;;;;5055837;28;20428;-82
2022/07/03 02:10:40;;;;;;;3.47;3.27;;;27.00;46.80;;;;;;5055787;28;20440;-84
2022/07/03 02:13:09;;;;;;;5.37;3.07;;;27.00;46.80;;;;;;5054232;28;20464;-82
2022/07/03 02:15:38;;;;;;;3.40;2.70;;;27.10;46.80;;;;;;5054374;28;20439;-82
2022/07/03 02:18:08;;;;;;;5.23;2.63;;;27.00;46.60;;;;;;5065852;28;20412;-84
2022/07/03 02:20:36;;;;;;;3.20;2.90;;;27.00;46.80;;;;;;5073723;28;20397;-82
2022/07/03 02:23:04;;;;;;;4.27;3.47;;;27.00;46.90;;;;;;5073413;28;20455;-83
2022/07/03 02:25:34;;;;;;;3.83;3.10;;;27.10;46.70;;;;;;5073182;28;20446;-82
2022/07/03 02:28:05;;;;;;;4.00;3.00;;;27.10;46.70;;;;;;5073711;28;20427;-83
2022/07/03 02:30:35;;;;;;;3.10;2.90;;;27.00;46.80;;;;;;5073841;28;20450;-82
2022/07/03 02:33:04;;;;;;;3.50;3.10;;;27.00;46.90;;;;;;5072939;28;20477;-83
2022/07/03 02:35:33;;;;;;;3.03;2.80;;;27.00;47.10;;;;;;5073579;28;20422;-83
2022/07/03 02:38:04;;;;;;;3.10;2.50;;;27.00;47.00;;;;;;5053841;28;20446;-83
2022/07/03 02:40:35;;;;;;;2.83;2.20;;;26.90;47.10;;;;;;5053088;28;20436;-82
2022/07/03 02:43:10;;;;;;;4.07;2.33;;;27.00;47.20;;;;;;5052809;28;20475;-83
2022/07/03 02:45:41;;;;;;;2.17;2.07;;;27.00;46.90;;;;;;5053369;28;20419;-84
2022/07/03 02:48:14;;;;;;;2.60;1.93;;;26.80;47.40;;;;;;5052582;28;20409;-83
2022/07/03 02:50:42;;;;;;;3.10;1.93;;;26.80;47.40;;;;;;5062945;28;20450;-82
2022/07/03 02:53:15;;;;;;;2.40;2.20;;;26.70;47.70;;;;;;5058636;28;20463;-83
2022/07/03 02:55:44;;;;;;;2.47;1.80;;;26.70;47.80;;;;;;5051041;28;20411;-80
2022/07/03 02:58:53;;;;;;;2.17;1.83;;;26.80;48.00;;;;;;5052141;28;20436;-81
2022/07/03 03:01:25;;;;;;;2.67;1.90;;;26.90;47.40;;;;;;5040190;28;20471;-83
2022/07/03 03:04:02;;;;;;;2.20;2.00;;;26.90;47.40;;;;;;5052770;28;20475;-83
2022/07/03 03:06:30;;;;;;;2.13;1.90;;;26.90;47.40;;;;;;5057580;28;20426;-82
2022/07/03 03:09:00;;;;;;;2.17;2.07;;;26.90;47.20;;;;;;5067952;28;20440;-82
2022/07/03 03:11:37;;;;;;;2.10;2.00;;;27.00;47.50;;;;;;5051896;28;20436;-83
2022/07/03 03:14:07;;;;;;;5.70;2.13;;;27.00;46.90;;;;;;5051631;28;20452;-82
2022/07/03 03:16:35;;;;;;;3.83;2.10;;;27.00;47.20;;;;;;5051811;28;20405;-82
2022/07/03 03:19:04;;;;;;;1.70;1.70;;;27.00;46.90;;;;;;5051703;28;20653;-82
2022/07/03 03:21:33;;;;;;;1.90;1.80;;;27.00;47.20;;;;;;5055144;28;20466;-83
2022/07/03 03:24:00;;;;;;;3.17;2.03;;;27.00;47.20;;;;;;5063637;28;20439;-82
2022/07/03 03:26:30;;;;;;;3.57;1.97;;;27.00;47.20;;;;;;5071325;28;20450;-84
2022/07/03 03:28:59;;;;;;;2.37;1.90;;;27.00;47.30;;;;;;5071776;28;20435;-83
2022/07/03 03:31:27;;;;;;;1.67;1.57;;;27.10;47.10;;;;;;5071480;28;20447;-82
2022/07/03 03:33:55;;;;;;;2.00;1.90;;;27.10;47.00;;;;;;5071586;28;20524;-83
2022/07/03 03:36:24;;;;;;;1.77;1.67;;;27.10;46.90;;;;;;5071841;28;20449;-83
2022/07/03 03:38:52;;;;;;;2.00;1.90;;;27.10;47.00;;;;;;5071681;28;20457;-83
2022/07/03 03:41:20;;;;;;;1.87;1.73;;;27.00;47.10;;;;;;5071689;28;20428;-82
2022/07/03 03:43:48;;;;;;;2.90;1.90;;;26.90;47.40;;;;;;5071831;28;20434;-83
2022/07/03 03:46:16;;;;;;;1.80;1.70;;;26.90;47.30;;;;;;5072171;28;20458;-83
2022/07/03 03:48:44;;;;;;;2.17;2.07;;;26.80;47.70;;;;;;5072205;28;20450;-83
2022/07/03 03:51:12;;;;;;;3.20;1.80;;;26.80;47.80;;;;;;5072147;28;20442;-82
2022/07/03 03:53:42;;;;;;;1.60;1.50;;;26.80;47.70;;;;;;5072513;28;20466;-82
2022/07/03 03:56:11;;;;;;;2.07;1.60;;;26.90;47.50;;;;;;5070408;28;20442;-82
2022/07/03 03:58:40;;;;;;;1.77;1.60;;;26.90;47.50;;;;;;5053351;28;20443;-82
2022/07/03 04:01:09;;;;;;;1.90;1.80;;;26.90;47.60;;;;;;5051882;28;20454;-82
2022/07/03 04:03:37;;;;;;;3.40;1.70;;;26.90;47.50;;;;;;5052096;28;20446;-82
2022/07/03 04:06:05;;;;;;;2.30;2.10;;;27.00;47.40;;;;;;5051603;28;20435;-83
2022/07/03 04:08:33;;;;;;;1.90;1.80;;;27.10;47.00;;;;;;5052114;28;20455;-82
2022/07/03 04:11:02;;;;;;;3.87;2.50;;;27.10;47.10;;;;;;5051674;28;20452;-82
2022/07/03 04:13:30;;;;;;;2.20;2.10;;;27.10;47.20;;;;;;5061571;28;20487;-82
2022/07/03 04:15:58;;;;;;;2.00;1.90;;;27.10;47.00;;;;;;5059798;28;20443;-82
2022/07/03 04:18:26;;;;;;;7.67;1.87;;;27.00;47.20;;;;;;5051816;28;20443;-83
2022/07/03 04:20:59;;;;;;;2.50;2.30;;;26.90;47.50;;;;;;5055343;28;20446;-82
2022/07/03 04:23:27;;;;;;;2.10;2.00;;;27.00;47.30;;;;;;5055965;28;20482;-82
2022/07/03 04:25:55;;;;;;;1.93;1.83;;;26.70;47.70;;;;;;5055693;28;20428;-84
2022/07/03 04:28:25;;;;;;;7.93;7.10;;;26.80;48.00;;;;;;5058838;28;20461;-82
2022/07/03 04:30:53;;;;;;;13.33;10.50;;;26.90;47.80;;;;;;5072493;28;20446;-82
2022/07/03 04:33:21;;;;;;;5.80;5.20;;;26.80;47.70;;;;;;5055439;28;20470;-83
2022/07/03 04:35:48;;;;;;;4.40;4.07;;;26.80;47.70;;;;;;5053610;28;20459;-82
2022/07/03 04:38:16;;;;;;;4.77;4.27;;;26.80;47.60;;;;;;5054886;28;20440;-82
2022/07/03 04:40:44;;;;;;;4.30;4.00;;;26.90;47.80;;;;;;5055105;28;20463;-83
2022/07/03 04:43:12;;;;;;;4.00;3.70;;;26.90;47.80;;;;;;5055052;28;20478;-83
2022/07/03 04:45:42;;;;;;;6.70;3.70;;;27.00;47.90;;;;;;5065284;28;20452;-83
2022/07/03 04:48:10;;;;;;;4.10;3.80;;;27.00;47.60;;;;;;5075197;28;20481;-82
2022/07/03 04:50:38;;;;;;;4.97;3.60;;;27.00;47.90;;;;;;5075189;28;20453;-83
2022/07/03 04:53:06;;;;;;;3.13;2.93;;;26.90;47.60;;;;;;5075072;28;20451;-83
2022/07/03 04:55:34;;;;;;;3.43;3.13;;;26.90;47.90;;;;;;5074989;28;20446;-83
2022/07/03 04:58:02;;;;;;;4.00;3.10;;;26.90;47.70;;;;;;5074384;28;20511;-83
2022/07/03 05:00:30;;;;;;;3.27;3.00;;;26.80;47.90;;;;;;5073064;28;20476;-83
2022/07/03 05:03:00;;;;;;;2.67;2.57;;;26.80;48.20;;;;;;5066116;28;20454;-84
2022/07/03 05:05:28;;;;;;;2.80;2.60;;;26.70;48.20;;;;;;5074697;28;20435;-84
2022/07/03 05:07:56;;;;;;;2.80;2.63;;;26.80;48.10;;;;;;5074869;28;20443;-84
2022/07/03 05:10:24;;;;;;;6.13;2.83;;;26.70;48.10;;;;;;5074066;28;20437;-84
2022/07/03 05:12:52;;;;;;;2.97;2.60;;;26.70;48.40;;;;;;5074802;28;20458;-84
2022/07/03 05:15:20;;;;;;;2.50;2.40;;;26.70;48.60;;;;;;5073171;28;20447;-84
2022/07/03 05:17:48;;;;;;;2.50;2.30;;;26.80;48.20;;;;;;5070548;28;20437;-84
2022/07/03 05:20:28;;;;;;;4.33;2.87;;;26.80;48.30;;;;;;5067826;28;20457;-83
2022/07/03 05:22:56;;;;;;;2.10;2.00;;;26.90;48.10;;;;;;5073813;28;20478;-83
2022/07/03 05:25:24;;;;;;;2.53;2.30;;;27.00;47.60;;;;;;5073997;28;20452;-83
2022/07/03 05:27:53;;;;;;;2.50;2.40;;;27.10;47.60;;;;;;5073244;28;20447;-83
2022/07/03 05:30:21;;;;;;;3.03;2.17;;;27.20;47.70;;;;;;5073355;28;20457;-83
2022/07/03 05:32:49;;;;;;;8.47;2.70;;;27.30;47.20;;;;;;5072620;28;20463;-83
2022/07/03 05:35:18;;;;;;;2.23;2.13;;;27.30;47.00;;;;;;5071914;28;20458;-82
2022/07/03 05:37:47;;;;;;;2.23;2.10;;;27.50;47.20;;;;;;5055279;28;20454;-84
2022/07/03 05:40:14;;;;;;;2.60;2.40;;;27.70;46.80;;;;;;5053594;28;20515;-82
2022/07/03 05:42:42;;;;;;;2.73;2.20;;;27.80;46.30;;;;;;5052918;28;20475;-84
2022/07/03 05:45:11;;;;;;;2.50;2.30;;;27.70;46.60;;;;;;5052719;28;20428;-84
2022/07/03 05:47:39;;;;;;;2.33;2.03;;;27.80;46.40;;;;;;5052830;28;20443;-83
2022/07/03 05:50:08;;;;;;;3.47;2.10;;;27.90;45.90;;;;;;5061730;28;20451;-84
2022/07/03 05:52:37;;;;;;;2.10;1.90;;;27.80;46.00;;;;;;5072814;28;20697;-85
2022/07/03 05:55:05;;;;;;;2.17;1.50;;;27.70;46.20;;;;;;5073446;28;20470;-84
2022/07/03 05:57:33;;;;;;;3.43;1.87;;;27.90;46.40;;;;;;5072707;28;20436;-83
2022/07/03 06:00:01;;;;;;;2.07;1.87;;;27.90;45.20;;;;;;5072852;28;20467;-82
2022/07/03 06:02:29;;;;;;;2.67;2.07;;;27.80;45.20;;;;;;5073423;28;20477;-82
2022/07/03 06:04:57;;;;;;;3.00;1.67;;;27.90;45.20;;;;;;5071807;28;20450;-83
2022/07/03 06:07:25;;;;;;;1.83;1.73;;;28.00;46.10;;;;;;5065147;28;20453;-83
2022/07/03 06:09:55;;;;;;;1.73;1.50;;;27.90;44.60;;;;;;5074490;28;20454;-83
2022/07/03 06:12:23;;;;;;;2.00;1.63;;;28.00;45.20;;;;;;5074127;28;20450;-83
2022/07/03 06:14:51;;;;;;;3.53;1.63;;;28.20;44.80;;;;;;5073379;28;20450;-84
2022/07/03 06:17:19;;;;;;;1.90;1.73;;;28.40;44.60;;;;;;5074161;28;20473;-83
2022/07/03 06:19:47;;;;;;;1.60;1.50;;;28.50;44.20;;;;;;5074307;28;20446;-83
2022/07/03 06:22:15;;;;;;;2.27;2.07;;;28.50;44.40;;;;;;5073387;28;20467;-83
2022/07/03 06:24:43;;;;;;;2.70;1.77;;;28.50;43.40;;;;;;5071817;28;20466;-84
2022/07/03 06:27:13;;;;;;;1.63;1.53;;;28.20;43.50;;;;;;5053582;28;20429;-83
2022/07/03 06:29:41;;;;;;;1.60;1.50;;;28.30;43.70;;;;;;5053125;28;20458;-82
2022/07/03 06:32:09;;;;;;;3.63;1.60;;;28.40;43.50;;;;;;5052565;28;20467;-83
2022/07/03 06:34:37;;;;;;;2.40;1.70;;;28.60;43.40;;;;;;5053204;28;20431;-84
2022/07/03 06:37:05;;;;;;;2.53;1.80;;;28.60;43.00;;;;;;5053678;28;20470;-84
2022/07/03 06:39:33;;;;;;;2.03;1.70;;;28.70;43.20;;;;;;5053900;28;20406;-84
2022/07/03 06:42:01;;;;;;;2.70;1.70;;;28.50;43.40;;;;;;5066171;28;20457;-83
2022/07/03 06:44:30;;;;;;;1.73;1.63;;;28.50;43.00;;;;;;5068304;28;20474;-83
2022/07/03 06:46:58;;;;;;;1.50;1.50;;;28.60;43.40;;;;;;5073213;28;20439;-83
2022/07/03 06:49:26;;;;;;;1.77;1.57;;;28.40;43.20;;;;;;5072433;28;20470;-84
2022/07/03 06:51:54;;;;;;;1.60;1.50;;;28.30;43.10;;;;;;5072451;28;20447;-84
2022/07/03 06:54:22;;;;;;;4.40;1.60;;;28.30;43.40;;;;;;5072999;28;20435;-84
2022/07/03 06:56:50;;;;;;;2.73;1.67;;;28.30;43.70;;;;;;5073559;28;20462;-85
2022/07/03 06:59:18;;;;;;;1.50;1.40;;;28.30;44.00;;;;;;5065162;28;20419;-84
2022/07/03 07:01:47;;;;;;;1.40;1.30;;;28.40;44.00;;;;;;5073172;28;20426;-84
2022/07/03 07:04:15;;;;;;;1.40;1.30;;;28.50;44.30;;;;;;5072735;28;20490;-83
2022/07/03 07:06:44;;;;;;;3.27;1.70;;;28.60;44.00;;;;;;5071653;28;20442;-83
2022/07/03 07:09:11;;;;;;;2.50;1.77;;;28.60;43.70;;;;;;5073117;28;20446;-84
2022/07/03 07:11:39;;;;;;;1.70;1.60;;;28.50;43.50;;;;;;5073624;28;20465;-84
2022/07/03 07:14:07;;;;;;;1.60;1.50;;;28.40;42.80;;;;;;5066191;28;20448;-83
2022/07/03 07:16:35;;;;;;;1.93;1.70;;;28.60;43.30;;;;;;5052439;28;20451;-84
2022/07/03 07:19:05;;;;;;;5.90;2.60;;;28.60;43.00;;;;;;5051598;28;20467;-84
2022/07/03 07:21:40;;;;;;;4.00;2.27;;;28.50;42.90;;;;;;5052324;28;20447;-85
2022/07/03 07:24:08;;;;;;;2.07;1.60;;;28.40;42.70;;;;;;5052133;28;20472;-84
2022/07/03 07:26:36;;;;;;;1.80;1.63;;;28.40;42.80;;;;;;5052687;28;20443;-83
2022/07/03 07:29:04;;;;;;;2.60;1.90;;;28.40;43.20;;;;;;5051752;28;20455;-82
2022/07/03 07:31:32;;;;;;;2.03;1.80;;;28.30;43.00;;;;;;5062755;28;20481;-83
2022/07/03 07:34:00;;;;;;;2.00;1.90;;;28.40;43.20;;;;;;5063756;28;20458;-83
2022/07/03 07:36:29;;;;;;;1.80;1.70;;;28.50;42.90;;;;;;5071444;28;20446;-84
2022/07/03 07:38:57;;;;;;;2.17;1.90;;;28.70;43.30;;;;;;5072338;28;20442;-84
2022/07/03 07:41:26;;;;;;;2.90;2.37;;;28.50;42.40;;;;;;5072008;28;20449;-84
2022/07/03 07:43:54;;;;;;;2.03;1.93;;;28.30;43.70;;;;;;5071266;28;20505;-83
2022/07/03 07:46:22;;;;;;;3.20;1.93;;;28.40;44.20;;;;;;5072062;28;20453;-83
2022/07/03 07:48:50;;;;;;;2.30;1.90;;;28.50;44.30;;;;;;5062447;28;20426;-85
2022/07/03 07:51:18;;;;;;;2.53;2.07;;;28.60;44.70;;;;;;5071727;28;20446;-84
2022/07/03 07:53:47;;;;;;;2.93;2.17;;;28.50;43.90;;;;;;5071604;28;20454;-84
2022/07/03 07:56:15;;;;;;;2.03;1.83;;;28.50;44.50;;;;;;5075777;28;20443;-83
2022/07/03 07:58:43;;;;;;;5.43;1.70;;;28.80;44.50;;;;;;5075628;28;20440;-85
2022/07/03 08:06:38;;;;;;;2.20;2.00;;;29.20;42.30;;;;;;5067488;28;20447;-83
2022/07/03 08:09:07;;;;;;;4.43;4.03;;;29.10;42.10;;;;;;5055767;28;20431;-83
2022/07/03 08:11:36;;;;;;;2.63;2.43;;;29.10;41.80;;;;;;5055432;28;20475;-86
2022/07/03 08:14:04;;;;;;;3.17;1.90;;;29.20;41.30;;;;;;5054858;28;20462;-83
2022/07/03 08:16:32;;;;;;;2.80;1.70;;;29.10;40.80;;;;;;5055346;28;20402;-83
2022/07/03 08:19:00;;;;;;;2.50;1.60;;;29.30;41.00;;;;;;5055260;28;20447;-81
2022/07/03 08:21:28;;;;;;;2.80;1.60;;;29.50;41.10;;;;;;5070047;28;20450;-84
2022/07/03 08:23:56;;;;;;;2.10;1.90;;;29.60;40.90;;;;;;5066749;28;20470;-83
2022/07/03 08:26:25;;;;;;;1.77;1.30;;;29.60;40.50;;;;;;5075450;28;20422;-84
2022/07/03 08:28:56;;;;;;;1.83;1.53;;;29.80;41.10;;;;;;5075327;28;20515;-83
2022/07/03 08:31:24;;;;;;;3.37;1.67;;;29.90;41.00;;;;;;5075441;28;20826;-84
2022/07/03 08:33:52;;;;;;;2.53;1.70;;;29.80;40.70;;;;;;5075234;28;21061;-83
2022/07/03 08:36:20;;;;;;;2.63;2.43;;;29.90;41.60;;;;;;5075189;28;20454;-83
2022/07/03 08:38:48;;;;;;;2.27;1.70;;;30.10;40.90;;;;;;5064863;28;20450;-83
2022/07/03 08:41:16;;;;;;;3.80;3.37;;;30.20;40.50;;;;;;5055438;28;20449;-83
2022/07/03 08:43:46;;;;;;;3.10;2.90;;;30.20;40.60;;;;;;5055981;28;20449;-84
2022/07/03 08:46:14;;;;;;;6.87;2.70;;;30.20;39.80;;;;;;5055459;28;20459;-83
2022/07/03 08:48:42;;;;;;;1.60;1.50;;;30.40;40.40;;;;;;5055553;28;20446;-83
2022/07/03 08:51:10;;;;;;;2.80;2.23;;;30.50;40.10;;;;;;5055519;28;20439;-83
2022/07/03 08:53:38;;;;;;;2.53;2.23;;;30.40;40.20;;;;;;5063108;28;20497;-83
2022/07/03 08:56:06;;;;;;;1.57;1.47;;;30.30;38.80;;;;;;5070851;28;20435;-82
2022/07/03 08:58:34;;;;;;;2.10;1.83;;;30.30;39.80;;;;;;5055414;28;20440;-83
2022/07/03 09:01:03;;;;;;;3.27;1.50;;;30.50;38.90;;;;;;5055194;28;20410;-84
2022/07/03 09:03:31;;;;;;;5.23;1.60;;;30.60;39.10;;;;;;5055361;28;20445;-83
2022/07/03 09:05:59;;;;;;;4.00;1.90;;;30.50;38.60;;;;;;5054006;28;20486;-86
2022/07/03 09:08:28;;;;;;;1.80;1.70;;;30.70;38.90;;;;;;5056002;28;20463;-86
2022/07/03 09:10:56;;;;;;;1.70;1.60;;;30.90;38.70;;;;;;5064458;28;20446;-85
2022/07/03 09:13:24;;;;;;;1.70;1.60;;;31.10;38.80;;;;;;5074374;28;20478;-85
2022/07/03 09:15:52;;;;;;;1.63;1.53;;;31.30;38.40;;;;;;5075958;28;20451;-86
2022/07/03 09:18:36;;;;;;;2.20;1.50;;;31.40;37.90;;;;;;5075723;28;20446;-85
2022/07/03 09:21:04;;;;;;;2.40;1.30;;;31.60;37.90;;;;;;5078675;28;20426;-86
2022/07/03 09:23:36;;;;;;;1.50;1.40;;;31.50;37.80;;;;;;5075155;28;20462;-84
2022/07/03 09:26:07;;;;;;;3.07;1.57;;;31.60;38.10;;;;;;5071007;28;20470;-83
2022/07/03 09:28:46;;;;;;;1.40;1.30;;;31.60;37.80;;;;;;5072118;28;20533;-83
2022/07/03 09:31:16;;;;;;;1.40;1.40;;;31.70;37.70;;;;;;5067085;28;20515;-84
2022/07/03 09:34:07;;;;;;;1.47;1.40;;;31.70;37.50;;;;;;5073157;28;20466;-84
2022/07/03 09:36:39;;;;;;;3.23;1.47;;;31.80;37.60;;;;;;5065267;28;20443;-84
2022/07/03 09:39:24;;;;;;;1.40;1.30;;;31.80;37.70;;;;;;5072101;28;20438;-86
2022/07/03 09:41:53;;;;;;;3.93;1.67;;;31.90;38.10;;;;;;5069900;28;20580;-86
2022/07/03 09:44:35;;;;;;;6.87;2.40;;;31.90;37.90;;;;;;5070103;28;20473;-83
2022/07/03 09:47:15;;;;;;;2.07;1.70;;;32.00;38.90;;;;;;5050405;28;20973;-83
2022/07/03 09:49:50;;;;;;;4.27;1.40;;;32.30;37.80;;;;;;5050153;28;20950;-83
2022/07/03 09:52:30;;;;;;;1.20;1.17;;;32.40;36.00;;;;;;5049219;28;21124;-84
2022/07/03 09:54:58;;;;;;;2.13;1.50;;;32.60;34.90;;;;;;5051941;28;20436;-84
2022/07/03 09:57:28;;;;;;;1.97;1.50;;;32.70;35.00;;;;;;5049220;28;20535;-85
2022/07/03 10:00:13;;;;;;;1.90;1.70;;;32.90;34.90;;;;;;5057367;28;20471;-85
2022/07/03 10:02:58;;;;;;;1.70;1.10;;;32.90;35.40;;;;;;5063494;28;20451;-84
2022/07/03 10:05:28;;;;;;;2.70;0.90;;;32.80;34.40;;;;;;5065966;28;20497;-83
2022/07/03 10:07:59;;;;;;;2.17;1.17;;;32.60;33.00;;;;;;5067601;28;20442;-83
2022/07/03 10:10:28;;;;;;;1.30;1.20;;;32.80;32.90;;;;;;5067539;28;20435;-83
2022/07/03 10:12:56;;;;;;;1.70;1.13;;;32.00;35.30;;;;;;5061731;28;20519;-82
2022/07/03 10:15:25;;;;;;;7.20;1.23;;;31.30;36.90;;;;;;5059059;28;20466;-81
2022/07/03 10:17:53;;;;;;;3.37;1.10;;;30.90;37.90;;;;;;5049012;28;20485;-81
2022/07/03 10:20:25;;;;;;;2.30;1.23;;;30.70;38.00;;;;;;5058659;28;20435;-79
2022/07/03 10:22:55;;;;;;;2.50;1.10;;;30.50;38.80;;;;;;5057322;28;20492;-80
2022/07/03 10:25:23;;;;;;;1.80;0.90;;;30.30;38.80;;;;;;5058529;28;20528;-80
2022/07/03 10:27:53;;;;;;;1.00;0.90;;;30.30;38.10;;;;;;5058955;28;20474;-80
2022/07/03 10:30:22;;;;;;;1.97;1.00;;;30.20;37.50;;;;;;5058803;28;20442;-83
2022/07/03 10:32:54;;;;;;;1.83;1.07;;;30.10;37.50;;;;;;5056545;28;20478;-80
2022/07/03 10:35:26;;;;;;;1.43;1.03;;;30.20;37.60;;;;;;5041980;28;20518;-80
2022/07/03 10:38:04;;;;;;;3.90;1.10;;;30.30;37.90;;;;;;5040142;28;20485;-79
2022/07/03 10:46:12;;;;;;;1.10;1.00;;;30.30;38.50;;;;;;5057999;28;20469;-80
2022/07/03 10:49:04;;;;;;;2.30;1.00;;;30.10;38.70;;;;;;5058408;28;20476;-80
2022/07/03 10:51:37;;;;;;;1.03;1.03;;;30.30;38.10;;;;;;5056229;28;20470;-80
2022/07/03 10:54:50;;;;;;;1.07;1.07;;;30.40;37.90;;;;;;5061119;28;20533;-86
2022/07/03 10:57:18;;;;;;;3.20;1.90;;;30.40;37.90;;;;;;5060989;28;20439;-81
2022/07/03 11:00:08;;;;;;;2.00;1.70;;;30.30;37.60;;;;;;5064341;28;20451;-81
2022/07/03 11:02:38;;;;;;;3.17;1.37;;;30.40;39.00;;;;;;5056540;28;20501;-80
2022/07/03 11:05:29;;;;;;;1.40;1.30;;;30.30;38.80;;;;;;5057441;28;20450;-79
2022/07/03 11:08:11;;;;;;;1.33;1.23;;;30.30;38.90;;;;;;5055842;28;20542;-81
2022/07/03 11:10:42;;;;;;;3.80;1.00;;;30.50;38.90;;;;;;5059752;28;20474;-80
2022/07/03 11:13:20;;;;;;;0.93;0.93;;;30.60;38.90;;;;;;5059227;28;20474;-81
2022/07/03 11:15:53;;;;;;;1.20;1.10;;;30.50;39.10;;;;;;5057588;28;20435;-83
2022/07/03 11:18:31;;;;;;;1.30;1.10;;;30.50;39.40;;;;;;5057926;28;20522;-79
2022/07/03 11:21:29;;;;;;;2.03;1.13;;;30.60;39.40;;;;;;5059441;28;20465;-79
2022/07/03 11:24:09;;;;;;;3.63;1.00;;;30.60;39.00;;;;;;5057767;28;20470;-81
2022/07/03 11:26:38;;;;;;;1.93;0.90;;;30.50;39.00;;;;;;5059510;28;20490;-81
2022/07/03 11:29:07;;;;;;;2.40;1.10;;;30.50;39.00;;;;;;5058152;28;20540;-81
2022/07/03 11:31:35;;;;;;;3.63;1.20;;;30.70;38.80;;;;;;5060086;28;20474;-82
2022/07/03 11:34:03;;;;;;;2.40;0.97;;;30.60;39.20;;;;;;5060880;28;20474;-82
2022/07/03 11:36:41;;;;;;;4.30;1.30;;;30.70;38.80;;;;;;5057247;28;20466;-80
2022/07/03 11:39:13;;;;;;;4.27;3.87;;;30.70;39.00;;;;;;5058422;28;20496;-80
2022/07/03 11:41:47;;;;;;;1.53;1.53;;;30.80;39.20;;;;;;5059379;28;20533;-86
2022/07/03 11:44:19;;;;;;;2.30;1.50;;;31.10;38.70;;;;;;5065314;28;20462;-82
2022/07/03 11:46:49;;;;;;;2.50;1.60;;;31.00;38.80;;;;;;5065842;28;20557;-82
2022/07/03 11:49:19;;;;;;;1.40;1.30;;;31.00;38.60;;;;;;5064866;28;20455;-81
2022/07/03 11:52:01;;;;;;;3.23;1.10;;;31.00;38.80;;;;;;5063018;28;20455;-83
2022/07/03 11:54:34;;;;;;;2.50;1.50;;;30.80;39.00;;;;;;5064002;28;20439;-83
2022/07/03 11:57:04;;;;;;;1.47;1.10;;;30.80;39.10;;;;;;5048619;28;20450;-82
2022/07/03 11:59:32;;;;;;;1.50;1.40;;;30.80;39.00;;;;;;5067048;28;20458;-81
2022/07/03 12:02:04;;;;;;;2.10;1.00;;;30.90;38.90;;;;;;5067868;28;20442;-81
2022/07/03 12:04:32;;;;;;;1.63;0.90;;;30.90;38.90;;;;;;5068359;28;20454;-81
2022/07/03 12:07:01;;;;;;;1.20;1.10;;;30.90;38.70;;;;;;5067453;28;20470;-82
2022/07/03 12:09:30;;;;;;;1.23;1.13;;;30.70;38.80;;;;;;5059868;28;20454;-82
2022/07/03 12:11:59;;;;;;;7.50;1.70;;;30.70;38.50;;;;;;5067211;28;20453;-83
2022/07/03 12:14:41;;;;;;;1.30;1.20;;;30.70;38.80;;;;;;5066403;28;20446;-83
2022/07/03 12:17:10;;;;;;;5.30;1.13;;;30.70;39.00;;;;;;5067853;28;20446;-83
2022/07/03 12:19:38;;;;;;;7.80;1.40;;;30.70;39.40;;;;;;5064899;28;20446;-83
2022/07/03 12:22:06;;;;;;;1.40;1.30;;;30.00;39.60;;;;;;5068315;28;20466;-83
2022/07/03 12:24:35;;;;;;;5.33;1.40;;;29.80;40.00;;;;;;5066929;28;20446;-83
2022/07/03 12:27:06;;;;;;;1.47;1.10;;;29.90;40.20;;;;;;5058038;28;20464;-84
2022/07/03 12:29:34;;;;;;;17.57;1.63;;;29.90;40.30;;;;;;5067925;28;20482;-85
2022/07/03 12:32:08;;;;;;;3.13;1.30;;;31.00;39.70;;;;;;5067730;28;20500;-83
2022/07/03 12:34:37;;;;;;;4.07;1.20;;;31.70;38.30;;;;;;5070048;28;20446;-84
2022/07/03 12:37:05;;;;;;;3.60;1.13;;;32.20;37.30;;;;;;5071570;28;20504;-85
2022/07/03 12:39:52;;;;;;;2.73;1.00;;;32.50;36.90;;;;;;5068964;28;20481;-82
2022/07/03 12:42:21;;;;;;;2.33;1.10;;;32.80;36.20;;;;;;5069895;28;20486;-84
2022/07/03 12:44:58;;;;;;;2.27;1.27;;;32.70;36.10;;;;;;5061313;28;20434;-83
2022/07/03 12:47:28;;;;;;;8.43;1.20;;;32.70;36.00;;;;;;5070276;28;20481;-83
2022/07/03 12:49:58;;;;;;;2.47;1.20;;;32.60;36.20;;;;;;5070444;28;20469;-83
2022/07/03 12:52:26;;;;;;;3.60;1.20;;;32.50;36.40;;;;;;5073963;28;20470;-83
2022/07/03 12:54:54;;;;;;;5.70;1.40;;;32.40;36.70;;;;;;5074820;28;20450;-83
2022/07/03 13:00:10;;;;;;;1.57;1.10;;;32.40;37.30;;;;;;5059382;28;20493;-83
2022/07/03 13:02:40;;;;;;;3.70;1.30;;;32.30;37.70;;;;;;5052095;28;20496;-83
2022/07/03 13:05:16;;;;;;;2.00;1.00;;;32.30;37.90;;;;;;5052590;28;20455;-83
2022/07/03 13:07:45;;;;;;;2.97;1.00;;;32.40;37.70;;;;;;5052618;28;20474;-83
2022/07/03 13:10:14;;;;;;;2.20;1.30;;;32.50;38.30;;;;;;5053613;28;20451;-82
2022/07/03 13:12:51;;;;;;;6.50;1.40;;;32.60;37.70;;;;;;5051395;28;20459;-82
2022/07/03 13:15:20;;;;;;;1.30;1.20;;;32.70;37.50;;;;;;5053924;28;20599;-81